sensor_id;sensor_type;location;lat;lon;timestamp;temperature;humidity
66708;DHT22;53622;0.000;0.000;2023-04-25T00:01:16;22.10;55.00
66708;DHT22;53622;0.000;0.000;2023-04-25T00:03:45;22.10;54.80
66708;DHT22;53622;0.000;0.000;2023-04-25T00:06:15;22.10;55.00
66708;DHT22;53622;0.000;0.000;2023-04-25T00:08:45;22.00;54.80
66708;DHT22;53622;0.000;0.000;2023-04-25T00:11:14;22.10;54.90
66708;DHT22;53622;0.000;0.000;2023-04-25T00:13:43;22.00;54.90
66708;DHT22;53622;0.000;0.000;2023-04-25T00:16:15;22.00;54.70
66708;DHT22;53622;0.000;0.000;2023-04-25T00:18:45;22.00;54.80
66708;DHT22;53622;0.000;0.000;2023-04-25T00:21:19;22.00;54.70
66708;DHT22;53622;0.000;0.000;2023-04-25T00:23:50;22.00;54.60
66708;DHT22;53622;0.000;0.000;2023-04-25T00:26:19;22.00;54.70
66708;DHT22;53622;0.000;0.000;2023-04-25T00:28:49;22.00;54.80
66708;DHT22;53622;0.000;0.000;2023-04-25T00:31:20;22.00;54.70
66708;DHT22;53622;0.000;0.000;2023-04-25T00:33:49;22.00;54.70
66708;DHT22;53622;0.000;0.000;2023-04-25T00:36:18;22.00;54.70
66708;DHT22;53622;0.000;0.000;2023-04-25T00:38:48;22.00;54.80
66708;DHT22;53622;0.000;0.000;2023-04-25T00:41:17;22.00;54.50
66708;DHT22;53622;0.000;0.000;2023-04-25T00:43:48;22.00;54.80
66708;DHT22;53622;0.000;0.000;2023-04-25T00:46:19;22.00;54.70
66708;DHT22;53622;0.000;0.000;2023-04-25T00:48:49;22.00;54.70
66708;DHT22;53622;0.000;0.000;2023-04-25T00:51:20;21.90;54.60
66708;DHT22;53622;0.000;0.000;2023-04-25T00:53:50;22.00;54.60
66708;DHT22;53622;0.000;0.000;2023-04-25T00:56:20;21.90;54.50
66708;DHT22;53622;0.000;0.000;2023-04-25T00:58:52;22.00;54.70
66708;DHT22;53622;0.000;0.000;2023-04-25T01:01:23;22.00;54.70
66708;DHT22;53622;0.000;0.000;2023-04-25T01:03:53;22.00;54.60
66708;DHT22;53622;0.000;0.000;2023-04-25T01:06:23;22.00;54.50
66708;DHT22;53622;0.000;0.000;2023-04-25T01:08:53;22.00;54.70
66708;DHT22;53622;0.000;0.000;2023-04-25T01:11:23;22.00;54.60
66708;DHT22;53622;0.000;0.000;2023-04-25T01:13:52;21.90;54.50
66708;DHT22;53622;0.000;0.000;2023-04-25T01:16:23;21.90;54.50
66708;DHT22;53622;0.000;0.000;2023-04-25T01:18:53;21.90;54.50
66708;DHT22;53622;0.000;0.000;2023-04-25T01:21:24;21.90;54.50
66708;DHT22;53622;0.000;0.000;2023-04-25T01:23:56;21.90;54.50
66708;DHT22;53622;0.000;0.000;2023-04-25T01:26:26;21.90;54.50
66708;DHT22;53622;0.000;0.000;2023-04-25T01:28:56;21.90;54.50
66708;DHT22;53622;0.000;0.000;2023-04-25T01:31:26;21.90;54.50
66708;DHT22;53622;0.000;0.000;2023-04-25T01:33:56;21.90;54.40
66708;DHT22;53622;0.000;0.000;2023-04-25T01:36:30;21.90;54.40
66708;DHT22;53622;0.000;0.000;2023-04-25T01:39:00;21.90;54.30
66708;DHT22;53622;0.000;0.000;2023-04-25T01:41:31;21.90;54.30
66708;DHT22;53622;0.000;0.000;2023-04-25T01:44:01;21.90;54.40
66708;DHT22;53622;0.000;0.000;2023-04-25T01:46:30;21.90;54.30
66708;DHT22;53622;0.000;0.000;2023-04-25T01:49:00;21.90;54.40
66708;DHT22;53622;0.000;0.000;2023-04-25T01:51:32;21.90;54.30
66708;DHT22;53622;0.000;0.000;2023-04-25T01:54:01;21.90;54.20
66708;DHT22;53622;0.000;0.000;2023-04-25T01:56:31;21.80;54.20
66708;DHT22;53622;0.000;0.000;2023-04-25T01:59:01;21.80;54.30
66708;DHT22;53622;0.000;0.000;2023-04-25T02:01:53;21.80;54.30
66708;DHT22;53622;0.000;0.000;2023-04-25T02:04:28;21.80;54.30
66708;DHT22;53622;0.000;0.000;2023-04-25T02:06:59;21.80;54.30
66708;DHT22;53622;0.000;0.000;2023-04-25T02:09:38;21.80;54.20
66708;DHT22;53622;0.000;0.000;2023-04-25T02:12:08;21.80;54.20
66708;DHT22;53622;0.000;0.000;2023-04-25T02:14:56;21.80;54.20
66708;DHT22;53622;0.000;0.000;2023-04-25T02:17:42;21.80;54.30
66708;DHT22;53622;0.000;0.000;2023-04-25T02:20:13;21.80;54.30
66708;DHT22;53622;0.000;0.000;2023-04-25T02:22:45;21.80;54.30
66708;DHT22;53622;0.000;0.000;2023-04-25T02:25:14;21.80;54.80
66708;DHT22;53622;0.000;0.000;2023-04-25T02:27:44;21.80;54.30
66708;DHT22;53622;0.000;0.000;2023-04-25T02:30:14;21.80;54.30
66708;DHT22;53622;0.000;0.000;2023-04-25T02:32:43;21.80;54.40
66708;DHT22;53622;0.000;0.000;2023-04-25T02:35:12;21.80;54.30
66708;DHT22;53622;0.000;0.000;2023-04-25T02:37:44;21.80;54.30
66708;DHT22;53622;0.000;0.000;2023-04-25T02:40:13;21.80;54.20
66708;DHT22;53622;0.000;0.000;2023-04-25T02:42:43;21.80;54.30
66708;DHT22;53622;0.000;0.000;2023-04-25T02:45:13;21.80;54.30
66708;DHT22;53622;0.000;0.000;2023-04-25T02:47:42;21.80;54.20
66708;DHT22;53622;0.000;0.000;2023-04-25T02:50:12;21.70;54.20
66708;DHT22;53622;0.000;0.000;2023-04-25T02:52:41;21.70;54.30
66708;DHT22;53622;0.000;0.000;2023-04-25T02:55:23;21.70;54.20
66708;DHT22;53622;0.000;0.000;2023-04-25T02:57:55;21.70;54.20
66708;DHT22;53622;0.000;0.000;2023-04-25T03:00:36;21.70;54.20
66708;DHT22;53622;0.000;0.000;2023-04-25T03:03:06;21.70;54.30
66708;DHT22;53622;0.000;0.000;2023-04-25T03:05:35;21.70;54.20
66708;DHT22;53622;0.000;0.000;2023-04-25T03:08:04;21.80;54.20
66708;DHT22;53622;0.000;0.000;2023-04-25T03:10:36;21.70;54.20
66708;DHT22;53622;0.000;0.000;2023-04-25T03:13:08;21.70;54.20
66708;DHT22;53622;0.000;0.000;2023-04-25T03:15:39;21.70;54.80
66708;DHT22;53622;0.000;0.000;2023-04-25T03:18:08;21.70;54.10
66708;DHT22;53622;0.000;0.000;2023-04-25T03:20:39;21.70;54.20
66708;DHT22;53622;0.000;0.000;2023-04-25T03:23:09;21.80;54.30
66708;DHT22;53622;0.000;0.000;2023-04-25T03:25:43;21.70;54.20
66708;DHT22;53622;0.000;0.000;2023-04-25T03:28:12;21.70;54.30
66708;DHT22;53622;0.000;0.000;2023-04-25T03:30:41;21.70;54.20
66708;DHT22;53622;0.000;0.000;2023-04-25T03:33:11;21.70;54.20
66708;DHT22;53622;0.000;0.000;2023-04-25T03:35:40;21.70;54.20
66708;DHT22;53622;0.000;0.000;2023-04-25T03:38:10;21.70;54.10
66708;DHT22;53622;0.000;0.000;2023-04-25T03:40:42;21.70;54.10
66708;DHT22;53622;0.000;0.000;2023-04-25T03:43:19;21.70;54.10
66708;DHT22;53622;0.000;0.000;2023-04-25T03:45:54;21.70;54.10
66708;DHT22;53622;0.000;0.000;2023-04-25T03:48:24;21.70;54.10
66708;DHT22;53622;0.000;0.000;2023-04-25T03:50:54;21.60;54.00
66708;DHT22;53622;0.000;0.000;2023-04-25T03:53:24;21.60;54.10
66708;DHT22;53622;0.000;0.000;2023-04-25T03:56:24;21.70;54.10
66708;DHT22;53622;0.000;0.000;2023-04-25T03:59:01;21.70;54.10
66708;DHT22;53622;0.000;0.000;2023-04-25T04:01:31;21.70;54.20
66708;DHT22;53622;0.000;0.000;2023-04-25T04:04:00;21.70;54.10
66708;DHT22;53622;0.000;0.000;2023-04-25T04:06:30;21.70;54.10
66708;DHT22;53622;0.000;0.000;2023-04-25T04:09:09;21.70;54.00
66708;DHT22;53622;0.000;0.000;2023-04-25T04:11:44;21.70;54.10
66708;DHT22;53622;0.000;0.000;2023-04-25T04:14:13;21.70;54.10
66708;DHT22;53622;0.000;0.000;2023-04-25T04:16:45;21.70;54.10
66708;DHT22;53622;0.000;0.000;2023-04-25T04:19:14;21.70;54.10
66708;DHT22;53622;0.000;0.000;2023-04-25T04:21:51;21.70;54.40
66708;DHT22;53622;0.000;0.000;2023-04-25T04:24:21;21.70;54.40
66708;DHT22;53622;0.000;0.000;2023-04-25T04:27:01;21.70;54.40
66708;DHT22;53622;0.000;0.000;2023-04-25T04:29:51;21.70;54.30
66708;DHT22;53622;0.000;0.000;2023-04-25T04:32:30;21.60;54.30
66708;DHT22;53622;0.000;0.000;2023-04-25T04:35:04;21.70;54.40
66708;DHT22;53622;0.000;0.000;2023-04-25T04:37:34;21.60;54.40
66708;DHT22;53622;0.000;0.000;2023-04-25T04:40:07;21.70;54.70
66708;DHT22;53622;0.000;0.000;2023-04-25T04:42:48;21.70;54.90
66708;DHT22;53622;0.000;0.000;2023-04-25T04:45:40;21.70;54.70
66708;DHT22;53622;0.000;0.000;2023-04-25T04:48:28;21.70;54.70
66708;DHT22;53622;0.000;0.000;2023-04-25T04:51:19;21.70;54.60
66708;DHT22;53622;0.000;0.000;2023-04-25T04:53:54;21.70;54.70
66708;DHT22;53622;0.000;0.000;2023-04-25T04:56:49;21.70;54.90
66708;DHT22;53622;0.000;0.000;2023-04-25T04:59:30;21.70;55.10
66708;DHT22;53622;0.000;0.000;2023-04-25T05:02:28;21.70;55.00
66708;DHT22;53622;0.000;0.000;2023-04-25T05:05:10;21.70;54.80
66708;DHT22;53622;0.000;0.000;2023-04-25T05:08:06;21.70;54.70
66708;DHT22;53622;0.000;0.000;2023-04-25T05:10:54;21.70;54.70
66708;DHT22;53622;0.000;0.000;2023-04-25T05:13:35;21.70;54.70
66708;DHT22;53622;0.000;0.000;2023-04-25T05:16:24;21.70;54.70
66708;DHT22;53622;0.000;0.000;2023-04-25T05:19:26;21.60;54.70
66708;DHT22;53622;0.000;0.000;2023-04-25T05:22:22;21.60;54.70
66708;DHT22;53622;0.000;0.000;2023-04-25T05:25:00;21.60;54.70
66708;DHT22;53622;0.000;0.000;2023-04-25T05:27:55;21.60;54.80
66708;DHT22;53622;0.000;0.000;2023-04-25T05:30:47;21.60;54.90
66708;DHT22;53622;0.000;0.000;2023-04-25T05:33:31;21.60;55.00
66708;DHT22;53622;0.000;0.000;2023-04-25T05:36:01;21.60;55.00
66708;DHT22;53622;0.000;0.000;2023-04-25T05:38:31;21.60;55.00
66708;DHT22;53622;0.000;0.000;2023-04-25T05:41:04;21.60;55.10
66708;DHT22;53622;0.000;0.000;2023-04-25T05:43:47;21.60;55.10
66708;DHT22;53622;0.000;0.000;2023-04-25T05:46:33;21.60;55.00
66708;DHT22;53622;0.000;0.000;2023-04-25T05:49:13;21.70;54.90
66708;DHT22;53622;0.000;0.000;2023-04-25T05:52:19;21.60;54.90
66708;DHT22;53622;0.000;0.000;2023-04-25T05:54:56;21.60;54.80
66708;DHT22;53622;0.000;0.000;2023-04-25T05:57:27;21.60;55.00
66708;DHT22;53622;0.000;0.000;2023-04-25T05:59:56;21.60;55.10
66708;DHT22;53622;0.000;0.000;2023-04-25T06:02:39;21.70;55.20
66708;DHT22;53622;0.000;0.000;2023-04-25T06:05:12;21.70;55.20
66708;DHT22;53622;0.000;0.000;2023-04-25T06:07:43;21.70;55.20
66708;DHT22;53622;0.000;0.000;2023-04-25T06:10:12;21.70;55.10
66708;DHT22;53622;0.000;0.000;2023-04-25T06:12:42;21.70;55.10
66708;DHT22;53622;0.000;0.000;2023-04-25T06:15:13;21.70;54.80
66708;DHT22;53622;0.000;0.000;2023-04-25T06:17:55;21.70;54.50
66708;DHT22;53622;0.000;0.000;2023-04-25T06:20:26;21.70;54.40
66708;DHT22;53622;0.000;0.000;2023-04-25T06:22:58;21.70;54.40
66708;DHT22;53622;0.000;0.000;2023-04-25T06:25:38;21.60;54.40
66708;DHT22;53622;0.000;0.000;2023-04-25T06:28:07;21.70;54.50
66708;DHT22;53622;0.000;0.000;2023-04-25T06:30:37;21.70;54.50
66708;DHT22;53622;0.000;0.000;2023-04-25T06:33:10;21.60;54.60
66708;DHT22;53622;0.000;0.000;2023-04-25T06:35:42;21.60;54.50
66708;DHT22;53622;0.000;0.000;2023-04-25T06:38:13;21.60;54.70
66708;DHT22;53622;0.000;0.000;2023-04-25T06:40:46;21.70;54.50
66708;DHT22;53622;0.000;0.000;2023-04-25T06:43:17;21.60;54.50
66708;DHT22;53622;0.000;0.000;2023-04-25T06:46:07;21.60;54.70
66708;DHT22;53622;0.000;0.000;2023-04-25T06:48:42;21.60;54.60
66708;DHT22;53622;0.000;0.000;2023-04-25T06:51:13;21.60;54.50
66708;DHT22;53622;0.000;0.000;2023-04-25T06:53:44;21.60;54.50
66708;DHT22;53622;0.000;0.000;2023-04-25T06:56:24;21.60;54.50
66708;DHT22;53622;0.000;0.000;2023-04-25T06:59:02;21.60;54.50
66708;DHT22;53622;0.000;0.000;2023-04-25T07:01:37;21.60;54.50
66708;DHT22;53622;0.000;0.000;2023-04-25T07:04:11;21.60;54.50
66708;DHT22;53622;0.000;0.000;2023-04-25T07:06:48;21.60;54.50
66708;DHT22;53622;0.000;0.000;2023-04-25T07:09:22;21.50;54.50
66708;DHT22;53622;0.000;0.000;2023-04-25T07:11:52;21.50;54.50
66708;DHT22;53622;0.000;0.000;2023-04-25T07:14:21;21.50;54.40
66708;DHT22;53622;0.000;0.000;2023-04-25T07:16:50;21.50;54.50
66708;DHT22;53622;0.000;0.000;2023-04-25T07:19:20;21.50;54.60
66708;DHT22;53622;0.000;0.000;2023-04-25T07:21:51;21.50;54.50
66708;DHT22;53622;0.000;0.000;2023-04-25T07:24:21;21.50;54.50
66708;DHT22;53622;0.000;0.000;2023-04-25T07:26:52;21.50;54.60
66708;DHT22;53622;0.000;0.000;2023-04-25T07:29:35;21.60;55.10
66708;DHT22;53622;0.000;0.000;2023-04-25T07:32:05;21.50;54.60
66708;DHT22;53622;0.000;0.000;2023-04-25T07:34:35;21.50;54.50
66708;DHT22;53622;0.000;0.000;2023-04-25T07:37:08;21.50;54.50
66708;DHT22;53622;0.000;0.000;2023-04-25T07:39:48;21.50;54.50
66708;DHT22;53622;0.000;0.000;2023-04-25T07:42:18;21.50;54.60
66708;DHT22;53622;0.000;0.000;2023-04-25T07:44:48;21.50;54.70
66708;DHT22;53622;0.000;0.000;2023-04-25T07:47:19;21.50;54.60
66708;DHT22;53622;0.000;0.000;2023-04-25T07:49:48;21.50;54.50
66708;DHT22;53622;0.000;0.000;2023-04-25T07:52:19;21.50;54.60
66708;DHT22;53622;0.000;0.000;2023-04-25T07:54:54;21.50;54.60
66708;DHT22;53622;0.000;0.000;2023-04-25T07:57:33;21.50;54.50
66708;DHT22;53622;0.000;0.000;2023-04-25T08:00:03;21.50;54.60
66708;DHT22;53622;0.000;0.000;2023-04-25T08:02:40;21.50;54.60
66708;DHT22;53622;0.000;0.000;2023-04-25T08:05:14;21.50;54.80
66708;DHT22;53622;0.000;0.000;2023-04-25T08:07:55;21.50;54.90
66708;DHT22;53622;0.000;0.000;2023-04-25T08:10:27;21.50;54.60
66708;DHT22;53622;0.000;0.000;2023-04-25T08:12:56;21.50;54.70
66708;DHT22;53622;0.000;0.000;2023-04-25T08:15:26;21.50;54.60
66708;DHT22;53622;0.000;0.000;2023-04-25T08:17:55;21.50;54.60
66708;DHT22;53622;0.000;0.000;2023-04-25T08:20:25;21.50;54.70
66708;DHT22;53622;0.000;0.000;2023-04-25T08:22:58;21.50;54.70
66708;DHT22;53622;0.000;0.000;2023-04-25T08:25:51;21.50;54.50
66708;DHT22;53622;0.000;0.000;2023-04-25T08:28:24;21.60;54.40
66708;DHT22;53622;0.000;0.000;2023-04-25T08:30:55;21.60;54.40
66708;DHT22;53622;0.000;0.000;2023-04-25T08:33:26;21.60;54.50
66708;DHT22;53622;0.000;0.000;2023-04-25T08:36:18;21.60;54.40
66708;DHT22;53622;0.000;0.000;2023-04-25T08:39:06;21.60;54.40
66708;DHT22;53622;0.000;0.000;2023-04-25T08:41:45;21.70;54.40
66708;DHT22;53622;0.000;0.000;2023-04-25T08:44:14;21.60;54.50
66708;DHT22;53622;0.000;0.000;2023-04-25T08:46:47;21.60;54.50
66708;DHT22;53622;0.000;0.000;2023-04-25T08:49:26;21.60;54.40
66708;DHT22;53622;0.000;0.000;2023-04-25T08:52:00;21.60;54.40
66708;DHT22;53622;0.000;0.000;2023-04-25T08:54:32;21.70;54.40
66708;DHT22;53622;0.000;0.000;2023-04-25T08:57:06;21.60;54.40
66708;DHT22;53622;0.000;0.000;2023-04-25T08:59:36;21.60;54.40
66708;DHT22;53622;0.000;0.000;2023-04-25T09:02:07;21.60;54.40
66708;DHT22;53622;0.000;0.000;2023-04-25T09:04:37;21.60;54.40
66708;DHT22;53622;0.000;0.000;2023-04-25T09:07:08;21.60;54.40
66708;DHT22;53622;0.000;0.000;2023-04-25T09:09:40;21.60;54.40
66708;DHT22;53622;0.000;0.000;2023-04-25T09:12:10;21.60;54.40
66708;DHT22;53622;0.000;0.000;2023-04-25T09:14:40;21.60;54.50
66708;DHT22;53622;0.000;0.000;2023-04-25T09:17:25;21.60;54.40
66708;DHT22;53622;0.000;0.000;2023-04-25T09:20:09;21.60;54.40
66708;DHT22;53622;0.000;0.000;2023-04-25T09:22:39;21.60;54.40
66708;DHT22;53622;0.000;0.000;2023-04-25T09:25:11;21.60;54.40
66708;DHT22;53622;0.000;0.000;2023-04-25T09:27:50;21.60;54.40
66708;DHT22;53622;0.000;0.000;2023-04-25T09:30:31;21.60;54.40
66708;DHT22;53622;0.000;0.000;2023-04-25T09:33:15;21.60;54.40
66708;DHT22;53622;0.000;0.000;2023-04-25T09:35:48;21.60;54.40
66708;DHT22;53622;0.000;0.000;2023-04-25T09:38:44;21.70;54.40
66708;DHT22;53622;0.000;0.000;2023-04-25T09:41:29;21.70;54.50
66708;DHT22;53622;0.000;0.000;2023-04-25T09:44:02;21.70;54.50
66708;DHT22;53622;0.000;0.000;2023-04-25T09:46:38;21.70;54.50
66708;DHT22;53622;0.000;0.000;2023-04-25T09:49:14;21.70;54.40
66708;DHT22;53622;0.000;0.000;2023-04-25T09:52:04;21.70;54.40
66708;DHT22;53622;0.000;0.000;2023-04-25T09:54:52;21.70;54.40
66708;DHT22;53622;0.000;0.000;2023-04-25T09:57:30;21.70;54.40
66708;DHT22;53622;0.000;0.000;2023-04-25T10:00:00;21.60;54.40
66708;DHT22;53622;0.000;0.000;2023-04-25T10:02:42;21.60;54.40
66708;DHT22;53622;0.000;0.000;2023-04-25T10:05:41;21.60;54.30
66708;DHT22;53622;0.000;0.000;2023-04-25T10:08:12;21.60;54.20
66708;DHT22;53622;0.000;0.000;2023-04-25T10:10:44;21.60;54.20
66708;DHT22;53622;0.000;0.000;2023-04-25T10:13:16;21.60;54.20
66708;DHT22;53622;0.000;0.000;2023-04-25T10:15:46;21.70;54.30
66708;DHT22;53622;0.000;0.000;2023-04-25T10:18:16;21.60;54.30
66708;DHT22;53622;0.000;0.000;2023-04-25T10:20:47;21.60;54.30
66708;DHT22;53622;0.000;0.000;2023-04-25T10:23:20;21.60;54.30
66708;DHT22;53622;0.000;0.000;2023-04-25T10:25:51;21.60;54.20
66708;DHT22;53622;0.000;0.000;2023-04-25T10:28:22;21.60;54.20
66708;DHT22;53622;0.000;0.000;2023-04-25T10:30:58;21.60;54.10
66708;DHT22;53622;0.000;0.000;2023-04-25T10:33:36;21.60;54.10
66708;DHT22;53622;0.000;0.000;2023-04-25T10:36:10;21.60;54.10
66708;DHT22;53622;0.000;0.000;2023-04-25T10:38:40;21.60;54.10
66708;DHT22;53622;0.000;0.000;2023-04-25T10:41:12;21.60;54.20
66708;DHT22;53622;0.000;0.000;2023-04-25T10:43:43;21.60;54.20
66708;DHT22;53622;0.000;0.000;2023-04-25T10:46:17;21.60;54.10
66708;DHT22;53622;0.000;0.000;2023-04-25T10:48:48;21.60;54.10
66708;DHT22;53622;0.000;0.000;2023-04-25T10:51:20;21.70;54.20
66708;DHT22;53622;0.000;0.000;2023-04-25T10:54:00;21.60;54.10
66708;DHT22;53622;0.000;0.000;2023-04-25T10:56:31;21.60;54.10
66708;DHT22;53622;0.000;0.000;2023-04-25T10:59:07;21.60;54.00
66708;DHT22;53622;0.000;0.000;2023-04-25T11:01:39;21.70;54.10
66708;DHT22;53622;0.000;0.000;2023-04-25T11:04:22;21.70;54.00
66708;DHT22;53622;0.000;0.000;2023-04-25T11:07:04;21.60;53.90
66708;DHT22;53622;0.000;0.000;2023-04-25T11:09:38;21.60;53.90
66708;DHT22;53622;0.000;0.000;2023-04-25T11:12:08;21.60;54.00
66708;DHT22;53622;0.000;0.000;2023-04-25T11:14:41;21.60;54.00
66708;DHT22;53622;0.000;0.000;2023-04-25T11:17:10;21.60;53.90
66708;DHT22;53622;0.000;0.000;2023-04-25T11:19:40;21.60;53.90
66708;DHT22;53622;0.000;0.000;2023-04-25T11:22:10;21.60;54.00
66708;DHT22;53622;0.000;0.000;2023-04-25T11:24:39;21.60;54.00
66708;DHT22;53622;0.000;0.000;2023-04-25T11:27:09;21.60;54.00
66708;DHT22;53622;0.000;0.000;2023-04-25T11:29:38;21.70;54.10
66708;DHT22;53622;0.000;0.000;2023-04-25T11:32:09;21.60;54.10
66708;DHT22;53622;0.000;0.000;2023-04-25T11:34:38;21.60;54.00
66708;DHT22;53622;0.000;0.000;2023-04-25T11:37:08;21.60;54.10
66708;DHT22;53622;0.000;0.000;2023-04-25T11:39:43;21.60;53.90
66708;DHT22;53622;0.000;0.000;2023-04-25T11:42:16;21.60;53.80
66708;DHT22;53622;0.000;0.000;2023-04-25T11:44:45;21.60;53.90
66708;DHT22;53622;0.000;0.000;2023-04-25T11:47:16;21.60;53.80
66708;DHT22;53622;0.000;0.000;2023-04-25T11:49:46;21.60;53.90
66708;DHT22;53622;0.000;0.000;2023-04-25T11:52:15;21.70;53.90
66708;DHT22;53622;0.000;0.000;2023-04-25T11:54:44;21.60;53.80
66708;DHT22;53622;0.000;0.000;2023-04-25T11:57:14;21.60;53.80
66708;DHT22;53622;0.000;0.000;2023-04-25T11:59:43;21.60;53.80
66708;DHT22;53622;0.000;0.000;2023-04-25T12:02:25;21.60;53.90
66708;DHT22;53622;0.000;0.000;2023-04-25T12:04:59;21.70;53.90
66708;DHT22;53622;0.000;0.000;2023-04-25T12:07:48;21.60;53.90
66708;DHT22;53622;0.000;0.000;2023-04-25T12:10:18;21.60;54.00
66708;DHT22;53622;0.000;0.000;2023-04-25T12:12:48;21.60;54.00
66708;DHT22;53622;0.000;0.000;2023-04-25T12:15:22;21.60;54.00
66708;DHT22;53622;0.000;0.000;2023-04-25T12:17:54;21.60;53.90
66708;DHT22;53622;0.000;0.000;2023-04-25T12:20:25;21.60;53.80
66708;DHT22;53622;0.000;0.000;2023-04-25T12:22:57;21.60;53.80
66708;DHT22;53622;0.000;0.000;2023-04-25T12:25:37;21.60;53.90
66708;DHT22;53622;0.000;0.000;2023-04-25T12:28:10;21.60;53.80
66708;DHT22;53622;0.000;0.000;2023-04-25T12:30:54;21.60;53.80
66708;DHT22;53622;0.000;0.000;2023-04-25T12:33:26;21.60;53.90
66708;DHT22;53622;0.000;0.000;2023-04-25T12:35:56;21.60;54.00
66708;DHT22;53622;0.000;0.000;2023-04-25T12:38:27;21.60;53.90
66708;DHT22;53622;0.000;0.000;2023-04-25T12:40:58;21.70;54.00
66708;DHT22;53622;0.000;0.000;2023-04-25T12:43:27;21.60;54.00
66708;DHT22;53622;0.000;0.000;2023-04-25T12:45:57;21.70;53.90
66708;DHT22;53622;0.000;0.000;2023-04-25T12:48:28;21.70;54.00
66708;DHT22;53622;0.000;0.000;2023-04-25T12:50:57;21.70;54.00
66708;DHT22;53622;0.000;0.000;2023-04-25T12:53:26;21.70;54.10
66708;DHT22;53622;0.000;0.000;2023-04-25T12:55:55;21.70;54.00
66708;DHT22;53622;0.000;0.000;2023-04-25T12:58:25;21.70;53.90
66708;DHT22;53622;0.000;0.000;2023-04-25T13:00:54;21.70;53.90
66708;DHT22;53622;0.000;0.000;2023-04-25T13:03:24;21.70;54.00
66708;DHT22;53622;0.000;0.000;2023-04-25T13:05:55;21.70;54.00
66708;DHT22;53622;0.000;0.000;2023-04-25T13:08:24;21.70;53.90
66708;DHT22;53622;0.000;0.000;2023-04-25T13:10:54;21.70;53.90
66708;DHT22;53622;0.000;0.000;2023-04-25T13:13:23;21.70;53.80
66708;DHT22;53622;0.000;0.000;2023-04-25T13:15:55;21.70;53.90
66708;DHT22;53622;0.000;0.000;2023-04-25T13:18:24;21.70;53.80
66708;DHT22;53622;0.000;0.000;2023-04-25T13:20:56;21.70;53.90
66708;DHT22;53622;0.000;0.000;2023-04-25T13:23:26;21.70;53.80
66708;DHT22;53622;0.000;0.000;2023-04-25T13:25:56;21.70;53.90
66708;DHT22;53622;0.000;0.000;2023-04-25T13:28:26;21.70;53.90
66708;DHT22;53622;0.000;0.000;2023-04-25T13:30:55;21.70;53.90
66708;DHT22;53622;0.000;0.000;2023-04-25T13:33:24;21.70;54.10
66708;DHT22;53622;0.000;0.000;2023-04-25T13:35:55;21.70;54.10
66708;DHT22;53622;0.000;0.000;2023-04-25T13:38:25;21.70;54.00
66708;DHT22;53622;0.000;0.000;2023-04-25T13:40:54;21.70;54.00
66708;DHT22;53622;0.000;0.000;2023-04-25T13:43:24;21.70;54.10
66708;DHT22;53622;0.000;0.000;2023-04-25T13:45:53;21.70;54.10
66708;DHT22;53622;0.000;0.000;2023-04-25T13:48:24;21.70;54.10
66708;DHT22;53622;0.000;0.000;2023-04-25T13:50:54;21.70;54.20
66708;DHT22;53622;0.000;0.000;2023-04-25T13:53:24;21.70;54.10
66708;DHT22;53622;0.000;0.000;2023-04-25T13:55:54;21.70;54.20
66708;DHT22;53622;0.000;0.000;2023-04-25T13:58:23;21.70;54.10
66708;DHT22;53622;0.000;0.000;2023-04-25T14:00:52;21.70;54.10
66708;DHT22;53622;0.000;0.000;2023-04-25T14:03:22;21.70;54.10
66708;DHT22;53622;0.000;0.000;2023-04-25T14:05:51;21.70;54.00
66708;DHT22;53622;0.000;0.000;2023-04-25T14:08:21;21.70;54.00
66708;DHT22;53622;0.000;0.000;2023-04-25T14:10:51;21.70;54.00
66708;DHT22;53622;0.000;0.000;2023-04-25T14:13:21;21.70;53.90
66708;DHT22;53622;0.000;0.000;2023-04-25T14:15:51;21.60;53.80
66708;DHT22;53622;0.000;0.000;2023-04-25T14:18:20;21.60;53.80
66708;DHT22;53622;0.000;0.000;2023-04-25T14:20:49;21.60;53.80
66708;DHT22;53622;0.000;0.000;2023-04-25T14:23:19;21.60;53.80
66708;DHT22;53622;0.000;0.000;2023-04-25T14:25:48;21.60;53.80
66708;DHT22;53622;0.000;0.000;2023-04-25T14:28:19;21.60;53.80
66708;DHT22;53622;0.000;0.000;2023-04-25T14:30:49;21.60;53.80
66708;DHT22;53622;0.000;0.000;2023-04-25T14:33:18;21.60;53.90
66708;DHT22;53622;0.000;0.000;2023-04-25T14:35:47;21.60;53.90
66708;DHT22;53622;0.000;0.000;2023-04-25T14:38:17;21.60;54.10
66708;DHT22;53622;0.000;0.000;2023-04-25T14:40:50;21.60;54.10
66708;DHT22;53622;0.000;0.000;2023-04-25T14:43:23;21.60;54.10
66708;DHT22;53622;0.000;0.000;2023-04-25T14:45:52;21.70;54.10
66708;DHT22;53622;0.000;0.000;2023-04-25T14:48:25;21.60;54.00
66708;DHT22;53622;0.000;0.000;2023-04-25T14:50:54;21.70;54.10
66708;DHT22;53622;0.000;0.000;2023-04-25T14:53:24;21.70;54.10
66708;DHT22;53622;0.000;0.000;2023-04-25T14:55:53;21.70;54.00
66708;DHT22;53622;0.000;0.000;2023-04-25T14:58:24;21.70;54.10
66708;DHT22;53622;0.000;0.000;2023-04-25T15:00:54;21.70;54.10
66708;DHT22;53622;0.000;0.000;2023-04-25T15:03:24;21.70;54.10
66708;DHT22;53622;0.000;0.000;2023-04-25T15:05:55;21.70;54.00
66708;DHT22;53622;0.000;0.000;2023-04-25T15:08:24;21.70;54.00
66708;DHT22;53622;0.000;0.000;2023-04-25T15:10:53;21.70;54.10
66708;DHT22;53622;0.000;0.000;2023-04-25T15:13:24;21.70;54.00
66708;DHT22;53622;0.000;0.000;2023-04-25T15:15:54;21.70;54.00
66708;DHT22;53622;0.000;0.000;2023-04-25T15:18:23;21.60;54.00
66708;DHT22;53622;0.000;0.000;2023-04-25T15:20:53;21.70;54.00
66708;DHT22;53622;0.000;0.000;2023-04-25T15:23:23;21.70;54.00
66708;DHT22;53622;0.000;0.000;2023-04-25T15:25:55;21.60;54.00
66708;DHT22;53622;0.000;0.000;2023-04-25T15:28:25;21.60;53.80
66708;DHT22;53622;0.000;0.000;2023-04-25T15:30:55;21.60;54.20
66708;DHT22;53622;0.000;0.000;2023-04-25T15:33:25;21.60;54.40
66708;DHT22;53622;0.000;0.000;2023-04-25T15:35:55;21.70;54.60
66708;DHT22;53622;0.000;0.000;2023-04-25T15:38:25;21.70;55.00
66708;DHT22;53622;0.000;0.000;2023-04-25T15:40:54;21.70;55.20
66708;DHT22;53622;0.000;0.000;2023-04-25T15:43:25;21.80;55.70
66708;DHT22;53622;0.000;0.000;2023-04-25T15:45:54;21.80;55.70
66708;DHT22;53622;0.000;0.000;2023-04-25T15:48:24;21.80;56.00
66708;DHT22;53622;0.000;0.000;2023-04-25T15:50:53;21.80;56.10
66708;DHT22;53622;0.000;0.000;2023-04-25T15:53:22;21.80;56.20
66708;DHT22;53622;0.000;0.000;2023-04-25T15:55:53;21.80;56.20
66708;DHT22;53622;0.000;0.000;2023-04-25T15:58:22;21.80;56.40
66708;DHT22;53622;0.000;0.000;2023-04-25T16:00:53;21.80;56.30
66708;DHT22;53622;0.000;0.000;2023-04-25T16:03:23;21.80;56.60
66708;DHT22;53622;0.000;0.000;2023-04-25T16:05:53;21.80;56.80
66708;DHT22;53622;0.000;0.000;2023-04-25T16:08:23;21.80;56.10
66708;DHT22;53622;0.000;0.000;2023-04-25T16:10:53;21.80;56.60
66708;DHT22;53622;0.000;0.000;2023-04-25T16:13:22;21.80;56.90
66708;DHT22;53622;0.000;0.000;2023-04-25T16:15:55;21.80;56.80
66708;DHT22;53622;0.000;0.000;2023-04-25T16:18:24;21.90;56.80
66708;DHT22;53622;0.000;0.000;2023-04-25T16:20:53;21.90;56.90
66708;DHT22;53622;0.000;0.000;2023-04-25T16:23:23;21.80;56.90